SAS68B ESSA-EYVI
Flight info
| Callsign | SAS68B |
|---|---|
| Flight time | 1h 20m |
| Altitude | 27000 |
| Route | BABAP P156 RASEL/N0440F370 DCT ASKOR DCT OTNAV |
| Aircraft | A320/M-SDE3FGHIRWY/LB1 |
Departure
| Time | 2026-05-05 08:58 |
|---|---|
| Airport | Stockholm-Arlanda Airport (ESSA) |
Arrival
| Time | 2026-05-05 10:18 |
|---|---|
| Airport | Vilnius International Airport (EYVI) |
| Time | Latitude | Longitude | Altitude | Speed | Heading |
|---|---|---|---|---|---|
| 2026-05-05 08:32 | 59.65035 | 17.92683 | 117 ft | 0 kts | 11° |
| 2026-05-05 08:47 | 59.65024 | 17.92679 | 113 ft | 2 kts | 8° |
| 2026-05-05 08:48 | 59.65008 | 17.92674 | 115 ft | 2 kts | 5° |
| 2026-05-05 08:48 | 59.64991 | 17.92672 | 115 ft | 2 kts | 354° |
| 2026-05-05 08:48 | 59.64975 | 17.92681 | 113 ft | 2 kts | 290° |
| 2026-05-05 08:48 | 59.64973 | 17.92704 | 114 ft | 1 kts | 265° |
| 2026-05-05 08:49 | 59.64973 | 17.92707 | 114 ft | 0 kts | 264° |
| 2026-05-05 08:51 | 59.64973 | 17.92671 | 114 ft | 5 kts | 268° |
| 2026-05-05 08:51 | 59.64971 | 17.92573 | 115 ft | 9 kts | 268° |
| 2026-05-05 08:51 | 59.64969 | 17.92438 | 117 ft | 11 kts | 269° |
| 2026-05-05 08:51 | 59.65010 | 17.92319 | 115 ft | 12 kts | 350° |
| 2026-05-05 08:52 | 59.65102 | 17.92349 | 117 ft | 14 kts | 10° |
| 2026-05-05 08:52 | 59.65195 | 17.92383 | 118 ft | 13 kts | 11° |
| 2026-05-05 08:52 | 59.65274 | 17.92409 | 117 ft | 10 kts | 344° |
| 2026-05-05 08:52 | 59.65321 | 17.92291 | 116 ft | 12 kts | 315° |
| 2026-05-05 08:53 | 59.65379 | 17.92282 | 117 ft | 10 kts | 9° |
| 2026-05-05 08:53 | 59.65471 | 17.92313 | 115 ft | 17 kts | 9° |
| 2026-05-05 08:53 | 59.65609 | 17.92367 | 120 ft | 24 kts | 11° |
| 2026-05-05 08:53 | 59.65781 | 17.92428 | 120 ft | 26 kts | 10° |
| 2026-05-05 08:54 | 59.65965 | 17.92493 | 122 ft | 28 kts | 11° |
| 2026-05-05 08:54 | 59.66154 | 17.92564 | 121 ft | 28 kts | 10° |
| 2026-05-05 08:54 | 59.66320 | 17.92624 | 122 ft | 23 kts | 11° |
| 2026-05-05 08:54 | 59.66471 | 17.92653 | 124 ft | 19 kts | 343° |
| 2026-05-05 08:55 | 59.66547 | 17.92599 | 125 ft | 0 kts | 340° |
| 2026-05-05 08:55 | 59.66551 | 17.92596 | 125 ft | 1 kts | 340° |
| 2026-05-05 08:55 | 59.66576 | 17.92578 | 126 ft | 6 kts | 340° |
| 2026-05-05 08:55 | 59.66617 | 17.92500 | 122 ft | 12 kts | 290° |
| 2026-05-05 08:56 | 59.66577 | 17.92353 | 124 ft | 15 kts | 192° |
| 2026-05-05 08:56 | 59.66568 | 17.92349 | 124 ft | 0 kts | 190° |
| 2026-05-05 08:57 | 59.66470 | 17.92313 | 123 ft | 45 kts | 191° |
| 2026-05-05 08:57 | 59.65933 | 17.92116 | 123 ft | 108 kts | 189° |
| 2026-05-05 08:57 | 59.65026 | 17.91797 | 117 ft | 156 kts | 190° |
| 2026-05-05 08:57 | 59.63940 | 17.91247 | 578 ft | 156 kts | 197° |
| 2026-05-05 08:58 | 59.62864 | 17.90831 | 1201 ft | 161 kts | 195° |
| 2026-05-05 08:58 | 59.61727 | 17.90534 | 1671 ft | 173 kts | 189° |
| 2026-05-05 08:58 | 59.60462 | 17.90397 | 2037 ft | 190 kts | 186° |
| 2026-05-05 08:58 | 59.59078 | 17.90295 | 2373 ft | 211 kts | 186° |
| 2026-05-05 08:59 | 59.57569 | 17.90268 | 2997 ft | 220 kts | 175° |
| 2026-05-05 08:59 | 59.56125 | 17.91390 | 3692 ft | 232 kts | 143° |
| 2026-05-05 08:59 | 59.55021 | 17.93696 | 4428 ft | 237 kts | 132° |
| 2026-05-05 08:59 | 59.54105 | 17.96420 | 5137 ft | 242 kts | 107° |
| 2026-05-05 09:00 | 59.54015 | 17.99682 | 5867 ft | 243 kts | 73° |
| 2026-05-05 09:00 | 59.54895 | 18.02616 | 6185 ft | 260 kts | 39° |
| 2026-05-05 09:00 | 59.56308 | 18.05065 | 6631 ft | 277 kts | 36° |
| 2026-05-05 09:00 | 59.57801 | 18.07545 | 7378 ft | 284 kts | 36° |
| 2026-05-05 09:01 | 59.59334 | 18.10109 | 8075 ft | 294 kts | 36° |
| 2026-05-05 09:01 | 59.60850 | 18.12904 | 8800 ft | 305 kts | 46° |
| 2026-05-05 09:01 | 59.61985 | 18.16512 | 9530 ft | 315 kts | 65° |
| 2026-05-05 09:01 | 59.62713 | 18.20650 | 10255 ft | 321 kts | 70° |
| 2026-05-05 09:02 | 59.63451 | 18.24970 | 10542 ft | 343 kts | 70° |
| 2026-05-05 09:02 | 59.64239 | 18.29569 | 10784 ft | 363 kts | 70° |
| 2026-05-05 09:02 | 59.65081 | 18.34406 | 11210 ft | 376 kts | 70° |
| 2026-05-05 09:02 | 59.65920 | 18.39348 | 11791 ft | 384 kts | 73° |
| 2026-05-05 09:03 | 59.66230 | 18.44631 | 12297 ft | 391 kts | 97° |
| 2026-05-05 09:03 | 59.65563 | 18.49806 | 12889 ft | 388 kts | 120° |
| 2026-05-05 09:03 | 59.64114 | 18.54113 | 13493 ft | 377 kts | 142° |
| 2026-05-05 09:03 | 59.62091 | 18.57232 | 14079 ft | 363 kts | 161° |
| 2026-05-05 09:04 | 59.59790 | 18.59053 | 14660 ft | 355 kts | 171° |
| 2026-05-05 09:04 | 59.57441 | 18.60623 | 15282 ft | 357 kts | 172° |
| 2026-05-05 09:04 | 59.55072 | 18.62188 | 15890 ft | 360 kts | 172° |
| 2026-05-05 09:04 | 59.52691 | 18.63758 | 16498 ft | 362 kts | 172° |
| 2026-05-05 09:05 | 59.50288 | 18.65351 | 17109 ft | 365 kts | 172° |
| 2026-05-05 09:05 | 59.47869 | 18.66965 | 17733 ft | 368 kts | 172° |
| 2026-05-05 09:05 | 59.45426 | 18.68604 | 18317 ft | 372 kts | 172° |
| 2026-05-05 09:05 | 59.42989 | 18.70327 | 18869 ft | 379 kts | 167° |
| 2026-05-05 09:06 | 59.40619 | 18.72856 | 19422 ft | 395 kts | 156° |
| 2026-05-05 09:06 | 59.38356 | 18.75882 | 19977 ft | 399 kts | 155° |
| 2026-05-05 09:06 | 59.36058 | 18.78956 | 20506 ft | 402 kts | 155° |
| 2026-05-05 09:06 | 59.33736 | 18.82047 | 21035 ft | 405 kts | 155° |
| 2026-05-05 09:07 | 59.31400 | 18.85151 | 21576 ft | 407 kts | 155° |
| 2026-05-05 09:07 | 59.29045 | 18.88273 | 22106 ft | 410 kts | 155° |
| 2026-05-05 09:07 | 59.26682 | 18.91382 | 22621 ft | 411 kts | 156° |
| 2026-05-05 09:07 | 59.24298 | 18.94521 | 23087 ft | 415 kts | 156° |
| 2026-05-05 09:08 | 59.21899 | 18.97692 | 23543 ft | 418 kts | 156° |
| 2026-05-05 09:08 | 59.19475 | 19.00892 | 23952 ft | 421 kts | 156° |
| 2026-05-05 09:08 | 59.17042 | 19.04091 | 24356 ft | 424 kts | 156° |
| 2026-05-05 09:08 | 59.14591 | 19.07310 | 24758 ft | 426 kts | 156° |
| 2026-05-05 09:09 | 59.12125 | 19.10546 | 25151 ft | 428 kts | 156° |
| 2026-05-05 09:09 | 59.09644 | 19.13794 | 25572 ft | 430 kts | 156° |
| 2026-05-05 09:09 | 59.07186 | 19.17008 | 25966 ft | 432 kts | 156° |
| 2026-05-05 09:09 | 59.04653 | 19.20305 | 26354 ft | 434 kts | 156° |
| 2026-05-05 09:10 | 59.02171 | 19.23525 | 26722 ft | 436 kts | 156° |
| 2026-05-05 09:10 | 58.99646 | 19.26796 | 27097 ft | 438 kts | 156° |
| 2026-05-05 09:10 | 58.97094 | 19.30021 | 27449 ft | 439 kts | 157° |
| 2026-05-05 09:10 | 58.94515 | 19.33184 | 27818 ft | 440 kts | 158° |
| 2026-05-05 09:11 | 58.91909 | 19.36323 | 28171 ft | 442 kts | 158° |
| 2026-05-05 09:11 | 58.89286 | 19.39464 | 28537 ft | 444 kts | 158° |
| 2026-05-05 09:11 | 58.86665 | 19.42610 | 28887 ft | 446 kts | 157° |
| 2026-05-05 09:11 | 58.84020 | 19.45795 | 29235 ft | 448 kts | 157° |
| 2026-05-05 09:12 | 58.81363 | 19.49004 | 29593 ft | 450 kts | 157° |
| 2026-05-05 09:12 | 58.78701 | 19.52220 | 29913 ft | 453 kts | 157° |
| 2026-05-05 09:12 | 58.76025 | 19.55448 | 30197 ft | 455 kts | 157° |
| 2026-05-05 09:12 | 58.73345 | 19.58679 | 30571 ft | 454 kts | 157° |
| 2026-05-05 09:13 | 58.70673 | 19.61895 | 30994 ft | 453 kts | 157° |
| 2026-05-05 09:13 | 58.68004 | 19.65102 | 31412 ft | 452 kts | 157° |
| 2026-05-05 09:13 | 58.65340 | 19.68293 | 31828 ft | 450 kts | 157° |
| 2026-05-05 09:13 | 58.62680 | 19.71473 | 32252 ft | 449 kts | 157° |
| 2026-05-05 09:14 | 58.60033 | 19.74634 | 32669 ft | 448 kts | 157° |
| 2026-05-05 09:14 | 58.57382 | 19.77791 | 33098 ft | 447 kts | 157° |
| 2026-05-05 09:14 | 58.54745 | 19.80927 | 33526 ft | 446 kts | 157° |
| 2026-05-05 09:14 | 58.52120 | 19.84041 | 33936 ft | 444 kts | 156° |
| 2026-05-05 09:15 | 58.49487 | 19.87155 | 34258 ft | 444 kts | 156° |
| 2026-05-05 09:15 | 58.46858 | 19.90254 | 34545 ft | 444 kts | 156° |
| 2026-05-05 09:15 | 58.44222 | 19.93354 | 34776 ft | 446 kts | 156° |
| 2026-05-05 09:16 | 58.38939 | 19.99551 | 34850 ft | 446 kts | 156° |
| 2026-05-05 09:16 | 58.33685 | 20.05713 | 34849 ft | 446 kts | 156° |
| 2026-05-05 09:17 | 58.28406 | 20.11890 | 34852 ft | 445 kts | 156° |
| 2026-05-05 09:17 | 58.23131 | 20.18030 | 34855 ft | 445 kts | 156° |
| 2026-05-05 09:18 | 58.17840 | 20.24154 | 34858 ft | 445 kts | 156° |
| 2026-05-05 09:18 | 58.12554 | 20.30256 | 34860 ft | 444 kts | 156° |
| 2026-05-05 09:19 | 58.07263 | 20.36341 | 34860 ft | 445 kts | 155° |
| 2026-05-05 09:19 | 58.02013 | 20.42564 | 34861 ft | 450 kts | 150° |
| 2026-05-05 09:20 | 57.97036 | 20.49627 | 34864 ft | 451 kts | 149° |
| 2026-05-05 09:20 | 57.92021 | 20.56695 | 34865 ft | 450 kts | 150° |
| 2026-05-05 09:21 | 57.86963 | 20.63757 | 34863 ft | 450 kts | 150° |
| 2026-05-05 09:21 | 57.81962 | 20.70717 | 34866 ft | 450 kts | 149° |
| 2026-05-05 09:22 | 57.76934 | 20.77706 | 34871 ft | 450 kts | 149° |
| 2026-05-05 09:22 | 57.71901 | 20.84671 | 34874 ft | 450 kts | 150° |
| 2026-05-05 09:23 | 57.66866 | 20.91626 | 34867 ft | 450 kts | 150° |
| 2026-05-05 09:23 | 57.61837 | 20.98556 | 34870 ft | 450 kts | 150° |
| 2026-05-05 09:24 | 57.56795 | 21.05470 | 34879 ft | 450 kts | 150° |
| 2026-05-05 09:24 | 57.51751 | 21.12368 | 34875 ft | 450 kts | 150° |
| 2026-05-05 09:25 | 57.46700 | 21.19257 | 34871 ft | 450 kts | 150° |
| 2026-05-05 09:25 | 57.41646 | 21.26117 | 34868 ft | 451 kts | 150° |
| 2026-05-05 09:26 | 57.36572 | 21.32961 | 34866 ft | 451 kts | 151° |
| 2026-05-05 09:26 | 57.31490 | 21.39789 | 34862 ft | 451 kts | 151° |
| 2026-05-05 09:27 | 57.27268 | 21.45458 | 34865 ft | 452 kts | 151° |
| 2026-05-05 09:27 | 57.22181 | 21.52273 | 34867 ft | 452 kts | 151° |
| 2026-05-05 09:28 | 57.17082 | 21.59088 | 34875 ft | 452 kts | 151° |
| 2026-05-05 09:28 | 57.11149 | 21.66979 | 34880 ft | 453 kts | 151° |
| 2026-05-05 09:29 | 57.06867 | 21.72641 | 34879 ft | 453 kts | 151° |
| 2026-05-05 09:29 | 57.01746 | 21.79398 | 34889 ft | 453 kts | 152° |
| 2026-05-05 09:30 | 56.96610 | 21.86146 | 34884 ft | 453 kts | 152° |
| 2026-05-05 09:30 | 56.91512 | 21.92827 | 34885 ft | 454 kts | 152° |
| 2026-05-05 09:31 | 56.86372 | 21.99552 | 34885 ft | 454 kts | 152° |
| 2026-05-05 09:31 | 56.81219 | 22.06265 | 34883 ft | 454 kts | 152° |
| 2026-05-05 09:32 | 56.76088 | 22.12917 | 34882 ft | 454 kts | 152° |
| 2026-05-05 09:32 | 56.70899 | 22.19624 | 34880 ft | 454 kts | 152° |
| 2026-05-05 09:33 | 56.65776 | 22.26235 | 34883 ft | 455 kts | 152° |
| 2026-05-05 09:33 | 56.60600 | 22.32867 | 34883 ft | 455 kts | 152° |
| 2026-05-05 09:34 | 56.55435 | 22.39480 | 34882 ft | 455 kts | 152° |
| 2026-05-05 09:34 | 56.50256 | 22.46096 | 34881 ft | 455 kts | 152° |
| 2026-05-05 09:35 | 56.45099 | 22.52653 | 34882 ft | 455 kts | 152° |
| 2026-05-05 09:35 | 56.37298 | 22.62549 | 34878 ft | 456 kts | 151° |
| 2026-05-05 09:36 | 56.32309 | 22.69704 | 34878 ft | 460 kts | 147° |
| 2026-05-05 09:36 | 56.27446 | 22.77221 | 34879 ft | 460 kts | 147° |
| 2026-05-05 09:37 | 56.22550 | 22.84641 | 34878 ft | 459 kts | 147° |
| 2026-05-05 09:37 | 56.17605 | 22.91909 | 34878 ft | 459 kts | 148° |
| 2026-05-05 09:38 | 56.12671 | 22.99067 | 34879 ft | 459 kts | 148° |
| 2026-05-05 09:38 | 56.07715 | 23.06266 | 34882 ft | 459 kts | 148° |
| 2026-05-05 09:39 | 56.02764 | 23.13480 | 34886 ft | 459 kts | 148° |
| 2026-05-05 09:39 | 55.97819 | 23.20662 | 34368 ft | 457 kts | 148° |
| 2026-05-05 09:40 | 55.95349 | 23.24234 | 33862 ft | 455 kts | 148° |
| 2026-05-05 09:40 | 55.92905 | 23.27762 | 33339 ft | 452 kts | 148° |
| 2026-05-05 09:40 | 55.90459 | 23.31288 | 32842 ft | 449 kts | 148° |
| 2026-05-05 09:40 | 55.88042 | 23.34765 | 32352 ft | 445 kts | 148° |
| 2026-05-05 09:41 | 55.85638 | 23.38218 | 31873 ft | 442 kts | 148° |
| 2026-05-05 09:41 | 55.83256 | 23.41632 | 31397 ft | 438 kts | 148° |
| 2026-05-05 09:41 | 55.80886 | 23.45029 | 30934 ft | 435 kts | 148° |
| 2026-05-05 09:41 | 55.78536 | 23.48397 | 30475 ft | 432 kts | 148° |
| 2026-05-05 09:42 | 55.76204 | 23.51733 | 30032 ft | 429 kts | 148° |
| 2026-05-05 09:42 | 55.73911 | 23.55004 | 29547 ft | 426 kts | 148° |
| 2026-05-05 09:42 | 55.71606 | 23.58283 | 29067 ft | 423 kts | 148° |
| 2026-05-05 09:42 | 55.69315 | 23.61535 | 28608 ft | 420 kts | 148° |
| 2026-05-05 09:43 | 55.67040 | 23.64751 | 28168 ft | 417 kts | 148° |
| 2026-05-05 09:43 | 55.64781 | 23.67941 | 27750 ft | 414 kts | 148° |
| 2026-05-05 09:43 | 55.62541 | 23.71106 | 27340 ft | 411 kts | 148° |
| 2026-05-05 09:43 | 55.60316 | 23.74246 | 26944 ft | 408 kts | 148° |
| 2026-05-05 09:44 | 55.58094 | 23.77375 | 26564 ft | 405 kts | 148° |
| 2026-05-05 09:44 | 55.55897 | 23.80464 | 26209 ft | 403 kts | 148° |
| 2026-05-05 09:44 | 55.53711 | 23.83538 | 25841 ft | 400 kts | 148° |
| 2026-05-05 09:44 | 55.51538 | 23.86592 | 25478 ft | 398 kts | 148° |
| 2026-05-05 09:45 | 55.49379 | 23.89619 | 25109 ft | 395 kts | 148° |
| 2026-05-05 09:45 | 55.47234 | 23.92621 | 24744 ft | 393 kts | 148° |
| 2026-05-05 09:45 | 55.45097 | 23.95609 | 24377 ft | 390 kts | 148° |
| 2026-05-05 09:45 | 55.42978 | 23.98566 | 24017 ft | 387 kts | 148° |
| 2026-05-05 09:46 | 55.40872 | 24.01500 | 23654 ft | 384 kts | 148° |
| 2026-05-05 09:46 | 55.38783 | 24.04401 | 23253 ft | 382 kts | 148° |
| 2026-05-05 09:46 | 55.36699 | 24.07289 | 22809 ft | 379 kts | 148° |
| 2026-05-05 09:46 | 55.34633 | 24.10153 | 22365 ft | 377 kts | 148° |
| 2026-05-05 09:47 | 55.32583 | 24.12992 | 21921 ft | 374 kts | 148° |
| 2026-05-05 09:47 | 55.30536 | 24.15826 | 21492 ft | 372 kts | 148° |
| 2026-05-05 09:47 | 55.28509 | 24.18624 | 21082 ft | 370 kts | 148° |
| 2026-05-05 09:47 | 55.26520 | 24.21363 | 20662 ft | 367 kts | 148° |
| 2026-05-05 09:48 | 55.24518 | 24.24121 | 20246 ft | 365 kts | 147° |
| 2026-05-05 09:48 | 55.22501 | 24.26900 | 19848 ft | 363 kts | 147° |
| 2026-05-05 09:48 | 55.20547 | 24.29588 | 19452 ft | 361 kts | 147° |
| 2026-05-05 09:48 | 55.18578 | 24.32297 | 19062 ft | 359 kts | 147° |
| 2026-05-05 09:49 | 55.16618 | 24.34992 | 18674 ft | 357 kts | 147° |
| 2026-05-05 09:49 | 55.14673 | 24.37661 | 18296 ft | 355 kts | 147° |
| 2026-05-05 09:49 | 55.12739 | 24.40311 | 17869 ft | 353 kts | 147° |
| 2026-05-05 09:49 | 55.10809 | 24.42948 | 17440 ft | 350 kts | 147° |
| 2026-05-05 09:50 | 55.08894 | 24.45562 | 17038 ft | 348 kts | 148° |
| 2026-05-05 09:50 | 55.06995 | 24.48150 | 16642 ft | 346 kts | 148° |
| 2026-05-05 09:50 | 55.05102 | 24.50719 | 16241 ft | 343 kts | 147° |
| 2026-05-05 09:50 | 55.03224 | 24.53268 | 15855 ft | 341 kts | 147° |
| 2026-05-05 09:51 | 55.01356 | 24.55804 | 15472 ft | 339 kts | 147° |
| 2026-05-05 09:51 | 54.99502 | 24.58320 | 15100 ft | 337 kts | 147° |
| 2026-05-05 09:51 | 54.97650 | 24.60831 | 14727 ft | 335 kts | 147° |
| 2026-05-05 09:51 | 54.95819 | 24.63312 | 14357 ft | 333 kts | 147° |
| 2026-05-05 09:52 | 54.94021 | 24.65750 | 13998 ft | 332 kts | 146° |
| 2026-05-05 09:52 | 54.92363 | 24.68644 | 13630 ft | 336 kts | 132° |
| 2026-05-05 09:52 | 54.91103 | 24.72027 | 13253 ft | 338 kts | 124° |
| 2026-05-05 09:52 | 54.89929 | 24.75537 | 12866 ft | 336 kts | 124° |
| 2026-05-05 09:53 | 54.88747 | 24.79036 | 12497 ft | 334 kts | 124° |
| 2026-05-05 09:53 | 54.87572 | 24.82495 | 12119 ft | 332 kts | 124° |
| 2026-05-05 09:53 | 54.86398 | 24.85943 | 11756 ft | 331 kts | 124° |
| 2026-05-05 09:53 | 54.85137 | 24.89239 | 11418 ft | 323 kts | 136° |
| 2026-05-05 09:54 | 54.83503 | 24.91716 | 11286 ft | 306 kts | 153° |
| 2026-05-05 09:54 | 54.81626 | 24.93275 | 11036 ft | 292 kts | 169° |
| 2026-05-05 09:54 | 54.79665 | 24.93865 | 10713 ft | 282 kts | 184° |
| 2026-05-05 09:54 | 54.77710 | 24.93915 | 10380 ft | 280 kts | 185° |
| 2026-05-05 09:55 | 54.75778 | 24.93970 | 10173 ft | 273 kts | 185° |
| 2026-05-05 09:55 | 54.73900 | 24.94034 | 9979 ft | 268 kts | 185° |
| 2026-05-05 09:55 | 54.72040 | 24.94097 | 9687 ft | 266 kts | 185° |
| 2026-05-05 09:55 | 54.70196 | 24.94159 | 9412 ft | 265 kts | 185° |
| 2026-05-05 09:56 | 54.68359 | 24.94219 | 9103 ft | 264 kts | 185° |
| 2026-05-05 09:56 | 54.66522 | 24.94278 | 8805 ft | 263 kts | 185° |
| 2026-05-05 09:56 | 54.64696 | 24.94336 | 8495 ft | 262 kts | 184° |
| 2026-05-05 09:56 | 54.62880 | 24.94393 | 8201 ft | 261 kts | 184° |
| 2026-05-05 09:57 | 54.61066 | 24.94452 | 7916 ft | 260 kts | 184° |
| 2026-05-05 09:57 | 54.59279 | 24.94979 | 7759 ft | 262 kts | 166° |
| 2026-05-05 09:57 | 54.57680 | 24.96468 | 7548 ft | 265 kts | 147° |
| 2026-05-05 09:57 | 54.56332 | 24.98662 | 7246 ft | 266 kts | 140° |
| 2026-05-05 09:58 | 54.55042 | 25.00863 | 7027 ft | 253 kts | 140° |
| 2026-05-05 09:58 | 54.53822 | 25.02942 | 6753 ft | 242 kts | 140° |
| 2026-05-05 09:58 | 54.52634 | 25.04952 | 6345 ft | 238 kts | 141° |
| 2026-05-05 09:58 | 54.51452 | 25.06942 | 5890 ft | 236 kts | 141° |
| 2026-05-05 09:59 | 54.50393 | 25.09091 | 5398 ft | 238 kts | 124° |
| 2026-05-05 09:59 | 54.49782 | 25.11734 | 4908 ft | 240 kts | 102° |
| 2026-05-05 09:59 | 54.49733 | 25.14532 | 4665 ft | 233 kts | 81° |
| 2026-05-05 09:59 | 54.50193 | 25.17113 | 4430 ft | 221 kts | 61° |
| 2026-05-05 10:00 | 54.51059 | 25.19238 | 4118 ft | 211 kts | 42° |
| 2026-05-05 10:00 | 54.52166 | 25.20715 | 4014 ft | 196 kts | 26° |
| 2026-05-05 10:00 | 54.53366 | 25.21640 | 3857 ft | 179 kts | 18° |
| 2026-05-05 10:00 | 54.54455 | 25.22392 | 3695 ft | 162 kts | 18° |
| 2026-05-05 10:01 | 54.55478 | 25.23096 | 3390 ft | 158 kts | 18° |
| 2026-05-05 10:01 | 54.56499 | 25.23797 | 3132 ft | 159 kts | 18° |
| 2026-05-05 10:01 | 54.57511 | 25.24494 | 2908 ft | 155 kts | 19° |
| 2026-05-05 10:01 | 54.58504 | 25.25189 | 2575 ft | 155 kts | 19° |
| 2026-05-05 10:02 | 54.59514 | 25.25937 | 2186 ft | 163 kts | 19° |
| 2026-05-05 10:02 | 54.60572 | 25.26722 | 1908 ft | 159 kts | 19° |
| 2026-05-05 10:02 | 54.61655 | 25.27481 | 2291 ft | 180 kts | 18° |
| 2026-05-05 10:02 | 54.62882 | 25.28305 | 2776 ft | 199 kts | 19° |
| 2026-05-05 10:03 | 54.64253 | 25.29201 | 3067 ft | 221 kts | 19° |
| 2026-05-05 10:03 | 54.65714 | 25.30172 | 3678 ft | 227 kts | 19° |
| 2026-05-05 10:03 | 54.67187 | 25.31179 | 4398 ft | 228 kts | 18° |
| 2026-05-05 10:03 | 54.68679 | 25.32238 | 4894 ft | 235 kts | 18° |
| 2026-05-05 10:04 | 54.70189 | 25.33339 | 4980 ft | 234 kts | 19° |
| 2026-05-05 10:04 | 54.71694 | 25.34445 | 5012 ft | 236 kts | 19° |
| 2026-05-05 10:04 | 54.73199 | 25.35554 | 5005 ft | 235 kts | 18° |
| 2026-05-05 10:04 | 54.74700 | 25.36669 | 5005 ft | 235 kts | 19° |
| 2026-05-05 10:05 | 54.76182 | 25.37759 | 5001 ft | 234 kts | 19° |
| 2026-05-05 10:05 | 54.77688 | 25.38859 | 5006 ft | 235 kts | 17° |
| 2026-05-05 10:05 | 54.79252 | 25.39240 | 5009 ft | 224 kts | 344° |
| 2026-05-05 10:05 | 54.80602 | 25.38135 | 5003 ft | 212 kts | 310° |
| 2026-05-05 10:06 | 54.81525 | 25.36163 | 5008 ft | 210 kts | 300° |
| 2026-05-05 10:06 | 54.82341 | 25.34057 | 5010 ft | 210 kts | 299° |
| 2026-05-05 10:06 | 54.83134 | 25.31942 | 5005 ft | 209 kts | 298° |
| 2026-05-05 10:06 | 54.83637 | 25.29634 | 5013 ft | 204 kts | 269° |
| 2026-05-05 10:07 | 54.83270 | 25.27316 | 5013 ft | 204 kts | 236° |
| 2026-05-05 10:07 | 54.82180 | 25.25738 | 5007 ft | 209 kts | 213° |
| 2026-05-05 10:07 | 54.80879 | 25.24589 | 5008 ft | 210 kts | 210° |
| 2026-05-05 10:07 | 54.79553 | 25.23506 | 5005 ft | 211 kts | 209° |
| 2026-05-05 10:08 | 54.78218 | 25.22424 | 5007 ft | 212 kts | 209° |
| 2026-05-05 10:08 | 54.76881 | 25.21349 | 5014 ft | 212 kts | 209° |
| 2026-05-05 10:08 | 54.75551 | 25.20277 | 5009 ft | 211 kts | 208° |
| 2026-05-05 10:08 | 54.74221 | 25.19203 | 5003 ft | 211 kts | 209° |
| 2026-05-05 10:09 | 54.72885 | 25.18130 | 5004 ft | 212 kts | 209° |
| 2026-05-05 10:09 | 54.71547 | 25.17058 | 5005 ft | 212 kts | 209° |
| 2026-05-05 10:09 | 54.70215 | 25.15991 | 5002 ft | 211 kts | 209° |
| 2026-05-05 10:09 | 54.68887 | 25.14924 | 4926 ft | 208 kts | 209° |
| 2026-05-05 10:10 | 54.67579 | 25.13871 | 4397 ft | 208 kts | 208° |
| 2026-05-05 10:10 | 54.66286 | 25.12809 | 3858 ft | 208 kts | 208° |
| 2026-05-05 10:10 | 54.64980 | 25.11709 | 3458 ft | 207 kts | 208° |
| 2026-05-05 10:10 | 54.63677 | 25.10589 | 3132 ft | 213 kts | 209° |
| 2026-05-05 10:11 | 54.62354 | 25.09439 | 3017 ft | 212 kts | 208° |
| 2026-05-05 10:11 | 54.61044 | 25.08339 | 3014 ft | 209 kts | 201° |
| 2026-05-05 10:11 | 54.59596 | 25.08132 | 3004 ft | 210 kts | 174° |
| 2026-05-05 10:11 | 54.58144 | 25.08633 | 3003 ft | 216 kts | 169° |
| 2026-05-05 10:12 | 54.56687 | 25.09245 | 2984 ft | 214 kts | 169° |
| 2026-05-05 10:12 | 54.55237 | 25.09868 | 3003 ft | 215 kts | 169° |
| 2026-05-05 10:12 | 54.53782 | 25.10493 | 3009 ft | 216 kts | 168° |
| 2026-05-05 10:12 | 54.52314 | 25.11125 | 2996 ft | 214 kts | 169° |
| 2026-05-05 10:13 | 54.50863 | 25.11745 | 2951 ft | 213 kts | 168° |
| 2026-05-05 10:13 | 54.49909 | 25.12163 | 2761 ft | 216 kts | 168° |
| 2026-05-05 10:13 | 54.48483 | 25.12871 | 2696 ft | 209 kts | 156° |
| 2026-05-05 10:13 | 54.47446 | 25.14539 | 2715 ft | 209 kts | 115° |
| 2026-05-05 10:14 | 54.47183 | 25.16970 | 2703 ft | 208 kts | 86° |
| 2026-05-05 10:14 | 54.47655 | 25.19298 | 2708 ft | 208 kts | 55° |
| 2026-05-05 10:14 | 54.48769 | 25.20732 | 2743 ft | 199 kts | 9° |
| 2026-05-05 10:14 | 54.50082 | 25.20882 | 2737 ft | 183 kts | 359° |
| 2026-05-05 10:15 | 54.51298 | 25.21052 | 2703 ft | 168 kts | 4° |
| 2026-05-05 10:15 | 54.52401 | 25.21374 | 2707 ft | 156 kts | 8° |
| 2026-05-05 10:15 | 54.53466 | 25.21831 | 2480 ft | 156 kts | 14° |
| 2026-05-05 10:15 | 54.54475 | 25.22409 | 2306 ft | 152 kts | 18° |
| 2026-05-05 10:16 | 54.55452 | 25.23076 | 2087 ft | 151 kts | 18° |
| 2026-05-05 10:16 | 54.56426 | 25.23746 | 1911 ft | 150 kts | 18° |
| 2026-05-05 10:16 | 54.57386 | 25.24408 | 1716 ft | 149 kts | 18° |
| 2026-05-05 10:16 | 54.58347 | 25.25072 | 1501 ft | 147 kts | 18° |
| 2026-05-05 10:17 | 54.59305 | 25.25732 | 1326 ft | 150 kts | 20° |
| 2026-05-05 10:17 | 54.60262 | 25.26420 | 1159 ft | 150 kts | 20° |
| 2026-05-05 10:17 | 54.61226 | 25.27082 | 885 ft | 151 kts | 19° |
| 2026-05-05 10:17 | 54.62214 | 25.27756 | 671 ft | 151 kts | 20° |
| 2026-05-05 10:18 | 54.63170 | 25.28396 | 634 ft | 133 kts | 21° |
| 2026-05-05 10:18 | 54.63863 | 25.28883 | 642 ft | 83 kts | 22° |
| 2026-05-05 10:18 | 54.64259 | 25.29162 | 653 ft | 37 kts | 22° |
| 2026-05-05 10:18 | 54.64334 | 25.29046 | 654 ft | 16 kts | 262° |
| 2026-05-05 10:19 | 54.64328 | 25.28841 | 653 ft | 18 kts | 266° |
| 2026-05-05 10:19 | 54.64325 | 25.28759 | 654 ft | 1 kts | 267° |
| 2026-05-05 10:19 | 54.64324 | 25.28722 | 652 ft | 5 kts | 267° |
| 2026-05-05 10:19 | 54.64322 | 25.28618 | 652 ft | 11 kts | 267° |
| 2026-05-05 10:20 | 54.64316 | 25.28462 | 651 ft | 15 kts | 266° |
| 2026-05-05 10:20 | 54.64242 | 25.28352 | 648 ft | 17 kts | 192° |
| 2026-05-05 10:20 | 54.64180 | 25.28241 | 647 ft | 13 kts | 279° |
| 2026-05-05 10:20 | 54.64227 | 25.28199 | 647 ft | 0 kts | 359° |